Time;durP1;ratioP1;P1;durP2;ratioP2;P2;SDS_P1;SDS_P2;PMS_P1;PMS_P2;Temp;Humidity;BMP_temperature;BMP_pressure;BME280_temperature;BME280_humidity;BME280_pressure;Samples;Min_cycle;Max_cycle;Signal;HPM_P1;HPM_P2
2023/08/13 00:00:55;;;;;;;4.40;3.90;;;23.50;96.50;;;;;;4987867;28;20456;-75
2023/08/13 00:03:22;;;;;;;9.83;4.33;;;23.50;96.50;;;;;;4984682;28;20444;-75
2023/08/13 00:05:48;;;;;;;4.30;3.67;;;23.50;96.50;;;;;;4986176;28;20404;-75
2023/08/13 00:08:14;;;;;;;4.43;4.00;;;23.50;96.50;;;;;;4973356;28;20737;-75
2023/08/13 00:10:39;;;;;;;7.20;4.40;;;23.40;96.50;;;;;;4954028;28;20451;-75
2023/08/13 00:13:13;;;;;;;3.80;3.50;;;23.40;96.50;;;;;;5005413;28;20485;-75
2023/08/13 00:15:39;;;;;;;4.73;4.20;;;23.40;96.40;;;;;;4988382;28;20990;-75
2023/08/13 00:18:08;;;;;;;3.90;3.43;;;23.40;96.40;;;;;;4968738;28;20428;-75
2023/08/13 00:20:36;;;;;;;6.00;4.30;;;23.40;96.40;;;;;;4991603;28;20964;-75
2023/08/13 00:23:02;;;;;;;5.90;4.00;;;23.40;96.50;;;;;;5020866;28;20474;-75
2023/08/13 00:25:31;;;;;;;4.20;3.53;;;23.40;96.50;;;;;;5004090;28;20538;-75
2023/08/13 00:27:59;;;;;;;5.30;3.80;;;23.40;96.50;;;;;;5005554;28;20461;-75
2023/08/13 00:30:27;;;;;;;3.70;3.40;;;23.40;96.40;;;;;;5019972;28;20413;-75
2023/08/13 00:32:54;;;;;;;4.30;3.90;;;23.40;96.50;;;;;;4971789;28;20472;-75
2023/08/13 00:35:19;;;;;;;5.37;4.10;;;23.30;96.40;;;;;;4983981;28;21335;-75
2023/08/13 00:37:48;;;;;;;5.90;4.13;;;23.30;96.40;;;;;;4962434;28;20425;-75
2023/08/13 00:40:16;;;;;;;5.00;4.50;;;23.30;96.50;;;;;;4967588;28;20447;-75
2023/08/13 00:42:49;;;;;;;5.10;4.10;;;23.30;96.50;;;;;;4968098;28;21344;-75
2023/08/13 00:45:16;;;;;;;6.37;4.30;;;23.30;96.50;;;;;;4974612;28;20495;-76
2023/08/13 00:47:42;;;;;;;4.53;4.00;;;23.30;96.50;;;;;;5013885;28;20425;-75
2023/08/13 00:50:11;;;;;;;5.17;4.13;;;23.30;96.50;;;;;;4984265;28;20457;-75
2023/08/13 00:52:40;;;;;;;4.03;3.70;;;23.30;96.50;;;;;;4967493;28;20472;-75
2023/08/13 00:55:07;;;;;;;4.70;4.20;;;23.30;96.50;;;;;;4986572;28;20800;-75
2023/08/13 00:57:34;;;;;;;4.20;3.80;;;23.30;96.50;;;;;;5002846;28;21188;-75
2023/08/13 01:00:02;;;;;;;5.33;3.63;;;23.30;96.50;;;;;;4987350;28;20487;-75
2023/08/13 01:02:32;;;;;;;4.53;4.17;;;23.20;96.50;;;;;;5004637;28;20541;-75
2023/08/13 01:05:00;;;;;;;6.30;3.93;;;23.20;96.50;;;;;;4983814;28;20605;-75
2023/08/13 01:07:33;;;;;;;5.40;4.40;;;23.20;96.50;;;;;;4940769;28;20579;-75
2023/08/13 01:10:35;;;;;;;3.77;3.47;;;23.20;96.50;;;;;;4967335;28;20429;-75
2023/08/13 01:13:21;;;;;;;4.80;4.30;;;23.20;96.50;;;;;;4969484;28;20451;-75
2023/08/13 01:15:51;;;;;;;4.90;3.80;;;23.20;96.50;;;;;;4986668;28;20424;-75
2023/08/13 01:18:21;;;;;;;6.23;4.10;;;23.20;96.50;;;;;;4966841;28;21027;-76
2023/08/13 01:20:49;;;;;;;4.90;3.90;;;23.20;96.50;;;;;;4986910;28;20448;-75
2023/08/13 01:23:15;;;;;;;6.33;3.97;;;23.20;96.50;;;;;;5003358;28;20405;-75
2023/08/13 01:25:51;;;;;;;6.03;4.33;;;23.10;96.50;;;;;;4987131;28;20459;-75
2023/08/13 01:28:29;;;;;;;4.50;4.10;;;23.10;96.50;;;;;;4967640;28;20509;-75
2023/08/13 01:31:16;;;;;;;5.00;3.90;;;23.10;96.50;;;;;;4953205;28;20963;-75
2023/08/13 01:33:45;;;;;;;4.07;3.77;;;23.10;96.50;;;;;;4986563;28;20459;-75
2023/08/13 01:36:16;;;;;;;4.80;3.93;;;23.10;96.50;;;;;;4986437;28;20425;-74
2023/08/13 01:38:44;;;;;;;7.63;3.97;;;23.10;96.50;;;;;;5002837;28;20423;-75
2023/08/13 01:41:12;;;;;;;5.00;3.70;;;23.10;96.50;;;;;;4986536;28;20525;-75
2023/08/13 01:43:41;;;;;;;4.63;4.20;;;23.10;96.50;;;;;;4970277;28;20456;-75
2023/08/13 01:46:07;;;;;;;5.27;4.17;;;23.10;96.50;;;;;;5019024;28;20459;-75
2023/08/13 01:48:37;;;;;;;4.60;3.90;;;23.10;96.50;;;;;;5002353;28;20528;-75
2023/08/13 01:51:06;;;;;;;4.40;4.00;;;23.00;96.40;;;;;;4987560;28;20451;-75
2023/08/13 01:53:32;;;;;;;5.03;3.80;;;23.00;96.40;;;;;;4986535;28;21148;-75
2023/08/13 01:56:00;;;;;;;5.20;3.63;;;23.00;96.50;;;;;;4986807;28;20447;-75
2023/08/13 01:58:27;;;;;;;4.10;3.80;;;23.00;96.40;;;;;;4969332;28;20514;-75
2023/08/13 02:00:53;;;;;;;4.50;4.10;;;23.00;96.40;;;;;;4986416;28;20979;-74
2023/08/13 02:03:24;;;;;;;5.33;3.70;;;23.00;96.40;;;;;;4971028;28;20431;-75
2023/08/13 02:05:52;;;;;;;3.83;3.53;;;23.00;96.40;;;;;;4987210;28;20528;-75
2023/08/13 02:08:18;;;;;;;9.17;4.30;;;23.00;96.40;;;;;;4969822;28;20474;-75
2023/08/13 02:10:44;;;;;;;4.87;4.03;;;23.00;96.40;;;;;;4986036;28;20910;-75
2023/08/13 02:13:15;;;;;;;5.50;4.10;;;23.00;96.40;;;;;;4986563;28;20204;-75
2023/08/13 02:15:41;;;;;;;4.27;3.87;;;22.90;96.40;;;;;;5002757;28;20459;-75
2023/08/13 02:18:08;;;;;;;4.10;3.57;;;22.90;96.40;;;;;;4986897;28;20890;-75
2023/08/13 02:20:34;;;;;;;4.43;3.90;;;22.90;96.70;;;;;;5002981;28;20490;-75
2023/08/13 02:23:00;;;;;;;5.47;3.83;;;22.90;96.40;;;;;;4970406;28;21270;-75
2023/08/13 02:25:29;;;;;;;4.00;3.60;;;22.90;96.40;;;;;;4969591;28;20538;-75
2023/08/13 02:27:57;;;;;;;4.13;3.67;;;22.90;96.40;;;;;;4969895;28;20444;-75
2023/08/13 02:30:27;;;;;;;5.50;4.13;;;22.90;96.40;;;;;;4989497;28;20419;-75
2023/08/13 02:32:53;;;;;;;4.40;3.97;;;22.90;96.40;;;;;;4989754;28;20463;-75
2023/08/13 02:35:25;;;;;;;4.77;3.83;;;22.90;96.40;;;;;;4990276;28;20535;-75
2023/08/13 02:37:51;;;;;;;4.00;3.70;;;22.90;96.40;;;;;;4980165;28;20424;-75
2023/08/13 02:40:19;;;;;;;5.27;3.80;;;22.80;96.30;;;;;;4989880;28;20471;-75
2023/08/13 02:42:47;;;;;;;4.23;3.83;;;22.80;96.30;;;;;;5005992;28;20436;-75
2023/08/13 02:45:16;;;;;;;3.77;3.47;;;22.80;96.30;;;;;;5022768;28;20435;-75
2023/08/13 02:47:43;;;;;;;4.23;3.77;;;22.80;96.30;;;;;;5018331;28;20534;-75
2023/08/13 02:50:10;;;;;;;7.03;4.17;;;22.80;96.30;;;;;;4987149;28;20482;-75
2023/08/13 02:52:35;;;;;;;4.07;3.60;;;22.80;96.30;;;;;;4979314;28;21215;-75
2023/08/13 02:55:01;;;;;;;7.70;4.13;;;22.80;96.30;;;;;;4969799;28;20472;-75
2023/08/13 02:57:29;;;;;;;4.00;3.70;;;22.80;96.30;;;;;;5012342;28;20431;-75
2023/08/13 02:59:55;;;;;;;5.90;3.97;;;22.80;96.30;;;;;;5005732;28;20479;-75
2023/08/13 03:02:24;;;;;;;4.03;3.50;;;22.70;96.20;;;;;;4989137;28;20446;-75
2023/08/13 03:04:51;;;;;;;6.10;4.23;;;22.70;96.30;;;;;;4970162;28;20429;-75
2023/08/13 03:07:17;;;;;;;5.73;3.73;;;22.70;96.20;;;;;;4966673;28;20866;-75
2023/08/13 03:09:45;;;;;;;6.23;4.10;;;22.70;96.20;;;;;;4988986;28;20515;-75
2023/08/13 03:12:11;;;;;;;5.53;3.87;;;22.70;96.30;;;;;;5005534;28;21053;-75
2023/08/13 03:14:38;;;;;;;4.00;3.50;;;22.70;96.30;;;;;;4988216;28;20825;-75
2023/08/13 03:17:04;;;;;;;6.73;3.80;;;22.70;96.30;;;;;;5002009;28;20421;-75
2023/08/13 03:19:33;;;;;;;5.47;3.53;;;22.70;96.30;;;;;;4972603;28;20452;-75
2023/08/13 03:22:01;;;;;;;4.33;3.93;;;22.60;96.20;;;;;;4972679;28;20459;-75
2023/08/13 03:24:30;;;;;;;5.53;4.10;;;22.70;96.20;;;;;;4972798;28;20440;-75
2023/08/13 03:27:01;;;;;;;4.00;3.70;;;22.60;96.20;;;;;;4972669;28;20462;-75
2023/08/13 03:29:29;;;;;;;4.60;4.10;;;22.60;96.20;;;;;;5006325;28;20430;-75
2023/08/13 03:31:57;;;;;;;4.90;3.77;;;22.60;96.20;;;;;;4988467;28;20463;-75
2023/08/13 03:34:28;;;;;;;5.33;4.10;;;22.60;96.20;;;;;;5006641;28;20895;-75
2023/08/13 03:36:54;;;;;;;3.90;3.50;;;22.60;96.20;;;;;;4996289;28;20458;-75
2023/08/13 03:39:20;;;;;;;4.87;3.93;;;22.60;96.20;;;;;;4987446;28;20429;-75
2023/08/13 03:41:51;;;;;;;4.47;3.90;;;22.60;96.20;;;;;;4971871;28;21120;-75
2023/08/13 03:44:19;;;;;;;4.33;3.93;;;22.50;96.10;;;;;;4988033;28;20440;-75
2023/08/13 03:46:50;;;;;;;7.03;4.10;;;22.50;96.10;;;;;;5020520;28;20424;-75
2023/08/13 03:49:21;;;;;;;7.87;4.00;;;22.50;96.10;;;;;;4987984;28;20963;-75
2023/08/13 03:51:47;;;;;;;4.10;3.70;;;22.50;96.10;;;;;;4971892;28;20455;-75
2023/08/13 03:54:15;;;;;;;4.30;3.70;;;22.50;96.10;;;;;;4972229;28;20518;-75
2023/08/13 03:56:42;;;;;;;4.90;3.70;;;22.50;96.10;;;;;;4981581;28;21039;-74
2023/08/13 03:59:08;;;;;;;6.40;4.20;;;22.50;96.10;;;;;;4998854;28;20506;-75
2023/08/13 04:01:35;;;;;;;5.03;3.90;;;22.50;96.10;;;;;;4986287;28;20476;-75
2023/08/13 04:04:01;;;;;;;5.60;4.00;;;22.50;96.10;;;;;;5005909;28;20419;-75
2023/08/13 04:06:30;;;;;;;3.87;3.53;;;22.50;96.10;;;;;;4972437;28;20459;-75
2023/08/13 04:08:58;;;;;;;4.30;3.90;;;22.40;96.40;;;;;;4987829;28;20451;-75
2023/08/13 04:11:29;;;;;;;3.83;3.53;;;22.40;96.00;;;;;;4984629;28;20448;-75
2023/08/13 04:13:57;;;;;;;3.70;3.30;;;22.40;96.40;;;;;;4984828;28;21100;-75
2023/08/13 04:16:26;;;;;;;5.70;3.80;;;22.40;96.00;;;;;;4946371;28;20466;-75
2023/08/13 04:18:53;;;;;;;4.77;3.73;;;22.40;96.00;;;;;;4968823;28;20173;-74
2023/08/13 04:21:25;;;;;;;4.70;4.00;;;22.40;96.00;;;;;;4959362;28;20546;-75
2023/08/13 04:23:58;;;;;;;4.87;3.60;;;22.40;96.00;;;;;;4970447;28;20448;-75
2023/08/13 04:26:25;;;;;;;7.03;4.40;;;22.40;96.00;;;;;;5014390;28;20466;-75
2023/08/13 04:28:52;;;;;;;4.10;3.70;;;22.40;96.00;;;;;;4967207;28;20409;-75
2023/08/13 04:31:20;;;;;;;4.03;3.73;;;22.30;96.00;;;;;;4983425;28;20471;-75
2023/08/13 04:33:48;;;;;;;4.17;3.70;;;22.30;95.90;;;;;;4970937;28;20662;-75
2023/08/13 04:36:18;;;;;;;3.90;3.43;;;22.30;95.90;;;;;;5001330;28;21398;-75
2023/08/13 04:38:47;;;;;;;3.83;3.43;;;22.30;95.90;;;;;;4982932;28;20901;-75
2023/08/13 04:41:13;;;;;;;6.00;4.37;;;22.30;95.90;;;;;;4988780;28;20457;-75
2023/08/13 04:43:42;;;;;;;5.37;4.20;;;22.30;95.90;;;;;;5001752;28;20441;-75
2023/08/13 04:46:13;;;;;;;5.20;3.53;;;22.30;96.30;;;;;;4986746;28;20474;-75
2023/08/13 04:48:47;;;;;;;4.50;3.50;;;22.30;96.20;;;;;;4986630;28;20853;-75
2023/08/13 04:51:18;;;;;;;3.60;3.20;;;22.30;95.90;;;;;;4973645;28;20459;-75
2023/08/13 04:53:47;;;;;;;4.23;3.83;;;22.30;95.90;;;;;;4985204;28;20563;-75
2023/08/13 04:56:18;;;;;;;6.13;3.67;;;22.20;95.90;;;;;;4952810;28;20535;-75
2023/08/13 04:58:44;;;;;;;4.27;3.90;;;22.30;95.90;;;;;;5019371;28;20412;-76
2023/08/13 05:01:14;;;;;;;4.20;3.20;;;22.20;95.80;;;;;;4968887;28;20475;-76
2023/08/13 05:03:45;;;;;;;5.90;3.57;;;22.20;95.80;;;;;;5002763;28;20867;-76
2023/08/13 05:06:14;;;;;;;5.43;3.63;;;22.20;95.80;;;;;;4985472;28;20471;-76
2023/08/13 05:08:44;;;;;;;5.00;3.17;;;22.20;95.80;;;;;;4988605;28;20447;-76
2023/08/13 05:11:11;;;;;;;3.27;2.97;;;22.20;95.80;;;;;;4961917;28;20506;-76
2023/08/13 05:13:40;;;;;;;4.30;3.23;;;22.20;95.90;;;;;;4966309;28;21078;-76
2023/08/13 05:16:07;;;;;;;4.63;3.90;;;22.20;95.80;;;;;;4962824;28;21297;-76
2023/08/13 05:18:33;;;;;;;5.27;3.50;;;22.20;95.90;;;;;;4969392;28;20432;-76
2023/08/13 05:21:02;;;;;;;4.37;3.53;;;22.20;95.90;;;;;;4985455;28;20451;-76
2023/08/13 05:23:28;;;;;;;5.07;3.53;;;22.10;95.80;;;;;;4969821;28;21213;-76
2023/08/13 05:25:54;;;;;;;4.00;3.40;;;22.10;95.80;;;;;;4984306;28;21423;-76
2023/08/13 05:28:21;;;;;;;3.93;3.60;;;22.10;95.80;;;;;;4983999;28;20440;-76
2023/08/13 05:30:46;;;;;;;4.63;3.87;;;22.10;95.80;;;;;;4976414;28;20903;-76
2023/08/13 05:33:13;;;;;;;3.47;3.17;;;22.10;95.80;;;;;;4969619;28;20581;-76
2023/08/13 05:35:39;;;;;;;5.03;4.00;;;22.10;95.80;;;;;;4986643;28;20444;-76
2023/08/13 05:38:05;;;;;;;5.00;3.80;;;22.10;95.80;;;;;;4986290;28;20444;-76
2023/08/13 05:40:31;;;;;;;3.93;3.50;;;22.10;95.90;;;;;;4994126;28;20464;-76
2023/08/13 05:43:02;;;;;;;3.93;3.50;;;22.10;95.90;;;;;;4978474;28;20772;-76
2023/08/13 05:45:33;;;;;;;5.13;3.10;;;22.10;95.90;;;;;;4984756;28;20421;-76
2023/08/13 05:47:58;;;;;;;3.10;2.90;;;22.00;95.80;;;;;;4984902;28;20435;-77
2023/08/13 05:50:28;;;;;;;4.40;3.03;;;22.10;95.90;;;;;;4968967;28;21007;-76
2023/08/13 05:52:59;;;;;;;3.60;3.30;;;22.10;95.90;;;;;;4967424;28;21879;-76
2023/08/13 05:55:27;;;;;;;5.07;3.30;;;22.00;95.90;;;;;;4967465;28;21230;-76
2023/08/13 05:57:53;;;;;;;4.70;3.10;;;22.00;95.90;;;;;;4967528;28;20416;-75
2023/08/13 06:00:19;;;;;;;5.30;3.50;;;22.00;95.90;;;;;;4984208;28;20424;-76
2023/08/13 06:02:45;;;;;;;6.97;2.93;;;22.00;95.90;;;;;;4980347;28;20883;-76
2023/08/13 06:05:16;;;;;;;3.63;3.30;;;22.00;96.00;;;;;;5002166;28;20463;-76
2023/08/13 06:07:42;;;;;;;4.17;3.60;;;22.00;96.00;;;;;;4965810;28;20525;-76
2023/08/13 06:10:10;;;;;;;4.30;3.30;;;22.00;96.00;;;;;;5002203;28;20452;-76
2023/08/13 06:12:36;;;;;;;6.47;3.60;;;22.00;96.10;;;;;;4994743;28;20475;-75
2023/08/13 06:15:02;;;;;;;5.97;3.17;;;22.00;96.00;;;;;;4968483;28;20966;-76
2023/08/13 06:17:28;;;;;;;5.67;3.60;;;22.00;96.00;;;;;;4983814;28;20463;-76
2023/08/13 06:19:54;;;;;;;4.67;3.17;;;22.00;96.10;;;;;;5001942;28;20851;-75
2023/08/13 06:22:21;;;;;;;6.03;3.60;;;22.00;96.10;;;;;;5001760;28;20460;-76
2023/08/13 06:24:47;;;;;;;3.90;3.20;;;22.00;96.10;;;;;;4968484;28;20444;-76
2023/08/13 06:27:13;;;;;;;4.00;3.67;;;22.00;96.10;;;;;;4995021;28;20439;-76
2023/08/13 06:29:41;;;;;;;5.40;3.40;;;22.00;96.10;;;;;;4986573;28;20476;-76
2023/08/13 06:32:09;;;;;;;6.00;3.20;;;22.00;96.10;;;;;;4950517;28;20461;-76
2023/08/13 06:34:35;;;;;;;3.20;2.90;;;22.00;96.20;;;;;;4984200;28;20432;-76
2023/08/13 06:37:03;;;;;;;5.50;3.37;;;22.00;96.20;;;;;;4992941;28;20521;-76
2023/08/13 06:39:29;;;;;;;4.00;3.40;;;22.00;96.20;;;;;;4977569;28;20455;-75
2023/08/13 06:41:58;;;;;;;4.73;3.20;;;22.00;96.20;;;;;;4983895;28;20443;-76
2023/08/13 06:44:28;;;;;;;3.93;3.10;;;22.00;96.20;;;;;;4984991;28;20437;-76
2023/08/13 06:46:54;;;;;;;4.13;3.73;;;21.90;96.20;;;;;;4958885;28;20544;-76
2023/08/13 06:49:25;;;;;;;3.63;3.33;;;21.90;96.20;;;;;;4968617;28;20997;-76
2023/08/13 06:51:55;;;;;;;5.07;3.07;;;21.90;96.20;;;;;;4986460;28;20846;-76
2023/08/13 06:54:21;;;;;;;5.07;3.53;;;21.90;96.20;;;;;;4993357;28;20919;-76
2023/08/13 06:56:47;;;;;;;4.33;3.30;;;21.90;96.20;;;;;;5001992;28;20431;-76
2023/08/13 06:59:15;;;;;;;4.37;3.50;;;22.00;96.30;;;;;;4970209;28;20428;-76
2023/08/13 07:01:44;;;;;;;4.30;3.57;;;21.90;96.60;;;;;;4985558;28;20533;-76
2023/08/13 07:04:15;;;;;;;7.30;3.80;;;21.90;96.20;;;;;;5000081;28;20495;-76
2023/08/13 07:06:41;;;;;;;4.27;3.10;;;21.90;96.30;;;;;;4985312;28;20420;-76
2023/08/13 07:09:07;;;;;;;4.47;3.20;;;21.90;96.30;;;;;;4985242;28;20554;-75
2023/08/13 07:11:36;;;;;;;4.10;3.70;;;21.90;96.30;;;;;;4969308;28;20448;-76
2023/08/13 07:14:03;;;;;;;3.83;3.37;;;21.90;96.30;;;;;;4985231;28;20907;-76
2023/08/13 07:16:29;;;;;;;6.83;3.20;;;21.90;96.30;;;;;;5006163;28;20436;-76
2023/08/13 07:18:59;;;;;;;3.90;3.50;;;21.90;96.30;;;;;;5005872;28;21281;-76
2023/08/13 07:21:27;;;;;;;3.77;3.33;;;21.90;96.30;;;;;;4993832;23;20513;-73
2023/08/13 07:23:55;;;;;;;3.60;3.10;;;21.90;96.30;;;;;;4958663;28;20526;-73
2023/08/13 07:26:22;;;;;;;3.70;3.40;;;21.90;96.30;;;;;;4957987;28;20500;-74
2023/08/13 07:28:51;;;;;;;3.97;2.73;;;21.90;96.40;;;;;;4974227;28;20231;-73
2023/08/13 07:31:21;;;;;;;4.13;3.60;;;21.90;96.40;;;;;;4986785;28;20448;-73
2023/08/13 07:33:51;;;;;;;3.17;2.93;;;21.90;96.40;;;;;;4953201;28;20794;-73
2023/08/13 07:36:17;;;;;;;5.77;3.67;;;21.90;96.40;;;;;;4971835;28;20560;-73
2023/08/13 07:38:46;;;;;;;4.23;3.50;;;21.90;96.40;;;;;;4990185;28;20420;-73
2023/08/13 07:41:16;;;;;;;4.30;2.87;;;21.90;96.50;;;;;;4986435;28;20980;-74
2023/08/13 07:43:42;;;;;;;5.00;3.60;;;21.90;96.50;;;;;;4983284;28;20460;-73
2023/08/13 07:46:10;;;;;;;5.47;3.67;;;21.90;96.60;;;;;;4955641;28;20448;-73
2023/08/13 07:48:38;;;;;;;4.57;3.30;;;21.90;96.50;;;;;;4971037;28;21179;-74
2023/08/13 07:51:04;;;;;;;3.63;3.30;;;21.90;96.50;;;;;;4971060;28;20671;-74
2023/08/13 07:53:31;;;;;;;4.57;3.20;;;21.90;96.50;;;;;;4992408;28;20455;-74
2023/08/13 07:56:02;;;;;;;6.87;3.23;;;21.90;96.60;;;;;;4970597;28;20174;-75
2023/08/13 07:58:38;;;;;;;5.63;3.30;;;21.90;96.60;;;;;;4933191;28;20450;-74
2023/08/13 08:01:07;;;;;;;4.60;3.50;;;21.90;96.60;;;;;;4964313;28;20452;-74
2023/08/13 08:03:33;;;;;;;5.43;3.63;;;21.90;96.50;;;;;;4961367;28;20488;-74
2023/08/13 08:06:00;;;;;;;3.43;3.13;;;21.90;96.50;;;;;;4965828;28;20457;-76
2023/08/13 08:08:26;;;;;;;4.87;3.80;;;21.90;96.50;;;;;;4967689;28;20246;-75
2023/08/13 08:10:53;;;;;;;4.57;3.67;;;21.90;96.50;;;;;;4933948;28;20584;-76
2023/08/13 08:13:18;;;;;;;4.83;3.07;;;21.90;96.50;;;;;;4962841;28;20245;-76
2023/08/13 08:15:46;;;;;;;5.70;3.10;;;21.90;96.50;;;;;;4951722;28;20904;-76
2023/08/13 08:18:14;;;;;;;5.70;3.13;;;21.90;96.50;;;;;;4983916;28;20202;-75
2023/08/13 08:20:40;;;;;;;4.13;2.73;;;22.00;96.60;;;;;;4985436;28;20464;-76
2023/08/13 08:23:06;;;;;;;4.40;3.17;;;22.00;96.50;;;;;;4951975;28;20487;-76
2023/08/13 08:25:34;;;;;;;5.37;3.40;;;22.00;96.60;;;;;;4985331;28;20429;-76
2023/08/13 08:28:00;;;;;;;3.23;2.90;;;22.00;96.50;;;;;;4986360;28;20467;-75
2023/08/13 08:30:27;;;;;;;4.73;3.10;;;22.00;96.60;;;;;;4968702;28;20967;-76
2023/08/13 08:32:54;;;;;;;5.03;3.07;;;22.00;96.50;;;;;;4968502;28;20472;-77
2023/08/13 08:35:20;;;;;;;4.60;3.10;;;22.00;96.50;;;;;;4989006;28;20457;-74
2023/08/13 08:37:53;;;;;;;11.63;3.27;;;22.00;96.50;;;;;;4983498;28;20524;-76
2023/08/13 08:40:21;;;;;;;4.20;2.97;;;22.00;96.50;;;;;;4952441;28;20425;-73
2023/08/13 08:42:47;;;;;;;4.00;3.60;;;22.00;96.50;;;;;;4984987;28;20532;-76
2023/08/13 08:45:19;;;;;;;6.20;3.33;;;22.10;96.50;;;;;;4967889;28;20226;-76
2023/08/13 08:47:50;;;;;;;3.63;3.33;;;22.10;96.50;;;;;;4968265;28;20542;-75
2023/08/13 08:50:19;;;;;;;5.60;3.00;;;22.10;96.60;;;;;;4952519;28;20957;-75
2023/08/13 08:52:45;;;;;;;6.00;3.60;;;22.10;96.50;;;;;;4950865;28;20476;-76
2023/08/13 08:55:16;;;;;;;3.53;3.23;;;22.10;96.50;;;;;;4979067;28;21046;-77
2023/08/13 08:57:49;;;;;;;4.67;2.67;;;22.10;96.50;;;;;;4986260;28;20527;-78
2023/08/13 09:00:16;;;;;;;5.03;3.30;;;22.10;96.50;;;;;;4987018;28;20461;-77
2023/08/13 09:02:45;;;;;;;3.80;3.27;;;22.20;96.50;;;;;;5004353;28;20439;-77
2023/08/13 09:05:15;;;;;;;3.00;2.80;;;22.20;96.40;;;;;;4975111;28;20505;-78
2023/08/13 09:07:44;;;;;;;4.13;3.33;;;22.20;96.40;;;;;;4968389;28;20413;-77
2023/08/13 09:10:11;;;;;;;6.20;3.40;;;22.20;96.40;;;;;;4986932;28;20461;-77
2023/08/13 09:12:41;;;;;;;3.43;3.07;;;22.20;96.30;;;;;;4977634;28;20474;-77
2023/08/13 09:15:12;;;;;;;3.33;3.03;;;22.30;96.40;;;;;;4961904;28;20528;-77
2023/08/13 09:17:40;;;;;;;3.67;3.37;;;22.30;96.40;;;;;;4970614;28;20452;-77
2023/08/13 09:20:24;;;;;;;3.20;2.90;;;22.30;96.40;;;;;;4970915;28;20468;-77
2023/08/13 09:22:50;;;;;;;3.43;3.13;;;22.30;96.40;;;;;;4987288;28;20555;-77
2023/08/13 09:25:22;;;;;;;3.90;3.17;;;22.30;96.40;;;;;;4988450;28;20430;-77
2023/08/13 09:27:48;;;;;;;4.40;3.40;;;22.40;96.40;;;;;;5002794;28;20827;-77
2023/08/13 09:30:30;;;;;;;4.93;3.30;;;22.40;96.30;;;;;;4984880;28;20411;-77
2023/08/13 09:33:02;;;;;;;3.93;3.03;;;22.40;96.30;;;;;;5002754;28;20478;-76
2023/08/13 09:35:31;;;;;;;3.63;2.60;;;22.40;96.30;;;;;;5004090;28;20428;-76
2023/08/13 09:38:00;;;;;;;3.70;2.70;;;22.40;96.20;;;;;;4986555;28;20435;-77
2023/08/13 09:40:26;;;;;;;3.33;2.93;;;22.50;96.20;;;;;;5004576;28;20169;-77
2023/08/13 09:42:56;;;;;;;3.60;3.30;;;22.50;96.20;;;;;;4974947;28;20463;-77
2023/08/13 09:45:29;;;;;;;4.27;3.13;;;22.50;96.20;;;;;;4970201;28;21261;-77
2023/08/13 09:47:59;;;;;;;5.50;2.50;;;22.50;96.10;;;;;;4983718;28;20510;-77
2023/08/13 09:50:28;;;;;;;4.30;3.53;;;22.50;96.10;;;;;;4967165;28;20991;-77
2023/08/13 09:52:56;;;;;;;3.30;2.93;;;22.60;96.10;;;;;;4951296;28;20514;-77
2023/08/13 09:55:29;;;;;;;3.90;3.17;;;22.60;96.10;;;;;;4984639;28;20438;-77
2023/08/13 09:57:58;;;;;;;3.30;2.80;;;22.60;96.10;;;;;;4966879;28;20438;-77
2023/08/13 10:00:25;;;;;;;4.10;3.33;;;22.60;96.10;;;;;;4967032;28;20409;-78
2023/08/13 10:02:56;;;;;;;3.20;3.00;;;22.70;96.10;;;;;;4993688;28;20460;-78
2023/08/13 10:05:23;;;;;;;5.30;3.27;;;22.70;96.10;;;;;;4981966;28;20464;-77
2023/08/13 10:07:51;;;;;;;2.83;2.63;;;22.70;96.10;;;;;;4966918;28;20484;-77
2023/08/13 10:10:19;;;;;;;3.20;2.90;;;22.70;96.20;;;;;;5003359;28;20894;-77
2023/08/13 10:12:48;;;;;;;4.53;3.17;;;22.80;96.30;;;;;;5002357;28;20502;-76
2023/08/13 10:15:18;;;;;;;4.50;3.30;;;22.80;96.20;;;;;;4966589;28;20967;-76
2023/08/13 10:17:47;;;;;;;6.20;3.73;;;22.80;96.20;;;;;;4966993;28;20429;-76
2023/08/13 10:20:17;;;;;;;3.90;3.37;;;22.90;96.20;;;;;;4966859;28;20405;-76
2023/08/13 10:22:45;;;;;;;3.43;3.10;;;22.90;96.10;;;;;;4966741;28;20547;-76
2023/08/13 10:25:30;;;;;;;5.43;3.20;;;22.90;96.10;;;;;;4966765;28;20440;-77
2023/08/13 10:27:56;;;;;;;4.30;3.23;;;22.90;96.00;;;;;;4967444;28;20495;-76
2023/08/13 10:30:23;;;;;;;3.13;2.90;;;23.00;96.00;;;;;;4985679;28;20523;-76
2023/08/13 10:32:58;;;;;;;4.40;2.93;;;23.00;96.00;;;;;;4969541;28;20566;-76
2023/08/13 10:35:38;;;;;;;4.40;3.30;;;23.00;95.90;;;;;;5003267;28;20404;-76
2023/08/13 10:38:07;;;;;;;3.50;2.60;;;23.00;95.90;;;;;;4973681;28;20567;-76
2023/08/13 10:40:34;;;;;;;3.20;2.83;;;23.10;95.90;;;;;;5003418;28;20400;-76
2023/08/13 10:43:03;;;;;;;4.60;3.60;;;23.10;95.90;;;;;;4967987;28;20502;-76
2023/08/13 10:45:37;;;;;;;3.83;2.70;;;23.10;95.80;;;;;;4966056;28;20413;-76
2023/08/13 10:48:05;;;;;;;3.20;2.90;;;23.10;95.80;;;;;;4966244;28;20872;-77
2023/08/13 10:50:38;;;;;;;3.93;3.07;;;23.10;95.80;;;;;;4957036;28;20458;-76
2023/08/13 10:53:07;;;;;;;3.93;3.13;;;23.20;95.80;;;;;;4989683;28;20682;-76
2023/08/13 10:55:47;;;;;;;4.27;3.20;;;23.20;95.80;;;;;;5007855;28;20435;-76
2023/08/13 10:58:37;;;;;;;3.97;3.20;;;23.20;95.70;;;;;;4989266;28;20431;-76
2023/08/13 11:01:12;;;;;;;5.00;3.00;;;23.20;95.60;;;;;;4989230;28;20436;-76
2023/08/13 11:03:50;;;;;;;3.00;2.80;;;23.30;95.60;;;;;;4989160;28;20589;-76
2023/08/13 11:06:24;;;;;;;2.87;2.47;;;23.30;95.60;;;;;;4973612;28;20428;-77
2023/08/13 11:08:51;;;;;;;3.90;3.10;;;23.30;95.50;;;;;;4954252;28;20437;-76
2023/08/13 11:11:19;;;;;;;4.60;3.00;;;23.40;95.50;;;;;;4970161;28;20536;-76
2023/08/13 11:13:47;;;;;;;5.60;3.10;;;23.40;95.50;;;;;;4988338;28;20455;-76
2023/08/13 11:16:15;;;;;;;3.60;3.20;;;23.40;95.40;;;;;;4954856;28;20823;-76
2023/08/13 11:18:41;;;;;;;4.03;3.13;;;23.40;95.30;;;;;;4970382;28;21197;-76
2023/08/13 11:21:07;;;;;;;3.70;3.03;;;23.40;95.30;;;;;;4987876;28;20452;-77
2023/08/13 11:23:34;;;;;;;4.63;3.43;;;23.50;95.30;;;;;;4970758;28;20602;-76
2023/08/13 11:34:32;;;;;;;5.20;3.13;;;23.50;95.20;;;;;;2411411;26;21032;-77
2023/08/13 11:36:58;;;;;;;3.67;3.33;;;23.50;95.20;;;;;;4984227;28;20584;-77
2023/08/13 11:39:25;;;;;;;6.70;3.30;;;23.60;95.20;;;;;;5017470;28;20406;-78
2023/08/13 11:41:52;;;;;;;5.90;3.07;;;23.60;95.50;;;;;;4998129;28;20432;-76
2023/08/13 11:44:21;;;;;;;4.33;3.17;;;23.70;95.10;;;;;;5015782;28;20488;-77
2023/08/13 11:47:22;;;;;;;3.43;3.10;;;23.70;95.00;;;;;;5015729;28;20977;-77
2023/08/13 11:49:50;;;;;;;6.63;3.40;;;23.70;95.00;;;;;;4998230;28;20799;-77
2023/08/13 11:52:19;;;;;;;4.03;3.30;;;23.70;95.00;;;;;;4996986;28;20594;-76
2023/08/13 11:54:46;;;;;;;6.50;3.40;;;23.70;94.80;;;;;;4978498;28;20470;-78
2023/08/13 11:57:11;;;;;;;3.63;2.90;;;23.80;94.90;;;;;;4976967;28;20433;-77
2023/08/13 11:59:41;;;;;;;5.67;3.63;;;23.80;94.80;;;;;;4993182;28;20423;-77
2023/08/13 12:02:07;;;;;;;5.60;3.20;;;23.80;94.70;;;;;;4992613;28;20451;-77
2023/08/13 12:04:36;;;;;;;4.00;3.30;;;23.80;94.70;;;;;;5012123;28;20436;-78
2023/08/13 12:07:12;;;;;;;3.50;3.03;;;23.80;94.70;;;;;;4995507;28;20486;-78
2023/08/13 12:09:38;;;;;;;5.07;3.13;;;23.90;94.70;;;;;;4996628;28;20451;-78
2023/08/13 12:12:05;;;;;;;6.37;4.07;;;23.90;94.70;;;;;;4976299;28;20483;-77
2023/08/13 12:14:31;;;;;;;4.23;3.80;;;23.90;94.60;;;;;;4993455;28;20202;-77
2023/08/13 12:16:59;;;;;;;4.10;3.70;;;23.90;94.60;;;;;;4976180;28;21034;-78
2023/08/13 12:19:25;;;;;;;3.73;3.33;;;23.90;95.00;;;;;;4972981;28;20535;-77
2023/08/13 12:21:54;;;;;;;3.90;3.10;;;24.00;94.60;;;;;;5006953;28;20542;-76
2023/08/13 12:24:21;;;;;;;4.23;3.63;;;24.00;94.50;;;;;;4973591;28;20441;-77
2023/08/13 12:26:47;;;;;;;6.83;3.77;;;24.00;94.40;;;;;;4972764;28;20471;-76
2023/08/13 12:29:13;;;;;;;5.30;4.00;;;24.00;94.30;;;;;;5006515;28;20441;-77
2023/08/13 12:31:41;;;;;;;5.50;3.90;;;24.10;94.40;;;;;;5006716;28;20530;-77
2023/08/13 12:34:11;;;;;;;6.77;3.90;;;24.10;94.40;;;;;;4973019;28;20888;-77
2023/08/13 12:36:37;;;;;;;6.20;3.77;;;24.10;94.40;;;;;;4975980;28;20942;-77
2023/08/13 12:39:05;;;;;;;5.67;4.03;;;24.10;94.40;;;;;;5008008;28;20404;-77
2023/08/13 12:41:33;;;;;;;6.00;4.27;;;24.10;94.40;;;;;;4972940;28;20225;-77
2023/08/13 12:44:02;;;;;;;8.97;3.70;;;24.20;94.30;;;;;;4989101;28;20447;-77
2023/08/13 12:46:28;;;;;;;6.10;3.67;;;24.20;94.20;;;;;;4988890;28;20555;-77
2023/08/13 12:48:54;;;;;;;5.33;3.70;;;24.20;94.20;;;;;;5006838;28;21029;-77
2023/08/13 12:51:20;;;;;;;9.57;4.63;;;24.20;94.10;;;;;;4989117;28;20455;-77
2023/08/13 12:53:46;;;;;;;4.20;3.80;;;24.20;94.10;;;;;;4989139;28;20232;-76
2023/08/13 12:56:17;;;;;;;5.10;3.73;;;24.30;94.10;;;;;;4988512;28;21049;-78
2023/08/13 12:58:45;;;;;;;4.70;3.80;;;24.30;94.00;;;;;;4995049;28;21004;-78
2023/08/13 13:01:13;;;;;;;6.47;4.43;;;24.30;94.00;;;;;;4989881;28;20456;-77
2023/08/13 13:03:39;;;;;;;4.27;3.87;;;24.40;94.00;;;;;;4973580;28;20425;-77